Tawas City, MI

6:18 PM EDT on April 01, 2015 (GMT -0400)
Tawas Bay Weather | | Change Station
CLOSE
Current Station
Personal Weather Station
Location: East Tawas, MI
Elevation: 590 ft
Nearby Weather Stations

Elev 590 ft 44.28 °N, 83.48 °W | Updated 9 seconds ago

Mostly Cloudy
Mostly Cloudy
38.8 °F
Feels Like 35 °F
N
5.0
Wind Variable Wind from East
Gusts 7.0 mph

Today
High -- | Low -- °F
--% Chance of Precip.
Yesterday
High -- | Low -- °F
Precip. -- in
7:16 AM 8:01 PM
Waxing Gibbous, 94% visible
Pressure 30.01 in
Visibility 10.0 miles
Clouds Overcast 11000 ft
Windchill 35 °F
Dew Point 33 °F
Humidity 79%
Rainfall 0.00 in
Snow Depth Not available.
UV 0 out of 12
Pollen 5.00 out of 12
Air Quality Not available.
Flu Activity Not available.
METAR KOSC 012213Z AUTO 12007KT 10SM OVC110 03/00 A3001 RMK AO2 T00351002

More Conditions Fewer Conditions

Pressure 30.01 in
Visibility 10.0 miles
Clouds Overcast 11000 ft
Windchill 35 °F
Dew Point 33 °F
Humidity 79%
Rainfall 0.00 in
Snow Depth Not available.
UV 0 out of 12
Pollen 5.00 out of 12
Air Quality Not available.
Flu Activity Not available.
METAR KOSC 012213Z AUTO 12007KT 10SM OVC110 03/00 A3001 RMK AO2 T00351002

More Conditions Fewer Conditions

Nowcast | as of 6:00 PM EDT on April 1, 2015

At 7 PM...partly cloudy. Temperature 43. Southeast winds 8 mph. At 9 PM...partly cloudy. Temperature 42. Southeast winds 7 mph. At 11 PM...partly cloudy. Temperature 41. Southeast winds 7 mph. At 1 am...partly cloudy. Temperature 40. South winds 9 mph.

×

10-Day Weather Forecast

Almanac

Astronomy

Apr. 01, 2015 Rise Set
Actual Time
Civil Twilight
Nautical Twilight
Astronomical Twilight
Moon
Length of Visible Light
Length of Day
Tomorrow will be .
, % of the Moon is Illuminated

Today's Extremes

State Highs State Lows

Community

WunderPhotos

Upload Photos

1,810,095 photos uploaded!

WunderBlogs® & News

Nearby

Air Quality

  Air Quality AQ Index Pollutant
Not available.

Snow Depth

Station Depth Elevation

Earthquake Activity

City Distance Mag. Time & Date
Minimum magnitude displayed is 2.5.

Coastal Water Temperatures

Place Temperature

Stations

Nearby Weather Stations

Station Location Temp. Windchill Dew Point Humidity Wind Precip. Elev Updated Type